sensor_id;sensor_type;location;lat;lon;timestamp;temperature;humidity
28087;DHT22;15392;48.912;8.380;2023-11-22T00:00:53;14.00;59.40
28087;DHT22;15392;48.912;8.380;2023-11-22T00:03:39;14.00;59.50
28087;DHT22;15392;48.912;8.380;2023-11-22T00:06:25;14.00;59.50
28087;DHT22;15392;48.912;8.380;2023-11-22T00:09:13;13.90;59.50
28087;DHT22;15392;48.912;8.380;2023-11-22T00:11:58;13.90;59.50
28087;DHT22;15392;48.912;8.380;2023-11-22T00:14:45;13.90;59.40
28087;DHT22;15392;48.912;8.380;2023-11-22T00:17:33;13.90;59.40
28087;DHT22;15392;48.912;8.380;2023-11-22T00:20:19;13.80;59.20
28087;DHT22;15392;48.912;8.380;2023-11-22T00:23:06;13.80;59.20
28087;DHT22;15392;48.912;8.380;2023-11-22T00:25:53;13.70;59.10
28087;DHT22;15392;48.912;8.380;2023-11-22T00:28:39;13.70;59.20
28087;DHT22;15392;48.912;8.380;2023-11-22T00:31:25;13.60;59.20
28087;DHT22;15392;48.912;8.380;2023-11-22T00:34:11;13.60;59.20
28087;DHT22;15392;48.912;8.380;2023-11-22T00:36:57;13.60;59.20
28087;DHT22;15392;48.912;8.380;2023-11-22T00:39:43;13.50;59.10
28087;DHT22;15392;48.912;8.380;2023-11-22T00:42:29;13.50;59.10
28087;DHT22;15392;48.912;8.380;2023-11-22T00:45:15;13.50;59.10
28087;DHT22;15392;48.912;8.380;2023-11-22T00:48:01;13.40;59.10
28087;DHT22;15392;48.912;8.380;2023-11-22T00:50:47;13.40;59.10
28087;DHT22;15392;48.912;8.380;2023-11-22T00:53:34;13.30;59.10
28087;DHT22;15392;48.912;8.380;2023-11-22T00:56:21;13.30;59.20
28087;DHT22;15392;48.912;8.380;2023-11-22T00:59:07;13.30;59.30
28087;DHT22;15392;48.912;8.380;2023-11-22T01:01:54;13.20;59.30
28087;DHT22;15392;48.912;8.380;2023-11-22T01:04:40;13.20;59.30
28087;DHT22;15392;48.912;8.380;2023-11-22T01:07:26;13.10;59.10
28087;DHT22;15392;48.912;8.380;2023-11-22T01:10:12;13.10;59.10
28087;DHT22;15392;48.912;8.380;2023-11-22T01:12:58;13.00;59.10
28087;DHT22;15392;48.912;8.380;2023-11-22T01:15:44;13.00;59.00
28087;DHT22;15392;48.912;8.380;2023-11-22T01:18:30;12.90;59.00
28087;DHT22;15392;48.912;8.380;2023-11-22T01:21:16;12.90;59.10
28087;DHT22;15392;48.912;8.380;2023-11-22T01:24:02;12.90;59.20
28087;DHT22;15392;48.912;8.380;2023-11-22T01:26:49;12.80;59.20
28087;DHT22;15392;48.912;8.380;2023-11-22T01:29:35;12.80;59.20
28087;DHT22;15392;48.912;8.380;2023-11-22T01:32:21;12.80;59.20
28087;DHT22;15392;48.912;8.380;2023-11-22T01:35:07;12.70;59.20
28087;DHT22;15392;48.912;8.380;2023-11-22T01:37:53;12.70;59.10
28087;DHT22;15392;48.912;8.380;2023-11-22T01:40:47;12.70;59.20
28087;DHT22;15392;48.912;8.380;2023-11-22T01:43:33;12.60;59.20
28087;DHT22;15392;48.912;8.380;2023-11-22T01:46:23;12.60;59.20
28087;DHT22;15392;48.912;8.380;2023-11-22T01:49:11;12.60;59.20
28087;DHT22;15392;48.912;8.380;2023-11-22T01:51:57;12.50;59.10
28087;DHT22;15392;48.912;8.380;2023-11-22T01:54:43;12.50;59.20
28087;DHT22;15392;48.912;8.380;2023-11-22T01:57:30;12.40;59.10
28087;DHT22;15392;48.912;8.380;2023-11-22T02:00:19;12.40;59.10
28087;DHT22;15392;48.912;8.380;2023-11-22T02:03:07;12.40;59.10
28087;DHT22;15392;48.912;8.380;2023-11-22T02:05:53;12.40;59.10
28087;DHT22;15392;48.912;8.380;2023-11-22T02:08:40;12.30;59.20
28087;DHT22;15392;48.912;8.380;2023-11-22T02:11:26;12.30;59.20
28087;DHT22;15392;48.912;8.380;2023-11-22T02:14:13;12.30;59.20
28087;DHT22;15392;48.912;8.380;2023-11-22T02:16:59;12.30;59.20
28087;DHT22;15392;48.912;8.380;2023-11-22T02:19:45;12.20;58.80
28087;DHT22;15392;48.912;8.380;2023-11-22T02:22:31;12.20;58.70
28087;DHT22;15392;48.912;8.380;2023-11-22T02:25:17;12.10;58.60
28087;DHT22;15392;48.912;8.380;2023-11-22T02:28:03;12.10;58.50
28087;DHT22;15392;48.912;8.380;2023-11-22T02:30:49;12.10;58.40
28087;DHT22;15392;48.912;8.380;2023-11-22T02:33:35;12.00;58.30
28087;DHT22;15392;48.912;8.380;2023-11-22T02:36:25;11.90;58.40
28087;DHT22;15392;48.912;8.380;2023-11-22T02:39:12;11.90;58.40
28087;DHT22;15392;48.912;8.380;2023-11-22T02:42:01;11.90;58.50
28087;DHT22;15392;48.912;8.380;2023-11-22T02:44:49;11.90;58.50
28087;DHT22;15392;48.912;8.380;2023-11-22T02:47:35;11.80;58.40
28087;DHT22;15392;48.912;8.380;2023-11-22T02:50:22;11.80;58.40
28087;DHT22;15392;48.912;8.380;2023-11-22T02:53:08;11.70;57.90
28087;DHT22;15392;48.912;8.380;2023-11-22T02:55:54;11.70;57.80
28087;DHT22;15392;48.912;8.380;2023-11-22T02:58:41;11.60;57.70
28087;DHT22;15392;48.912;8.380;2023-11-22T03:01:27;11.60;57.80
28087;DHT22;15392;48.912;8.380;2023-11-22T03:04:13;11.50;57.50
28087;DHT22;15392;48.912;8.380;2023-11-22T03:06:59;11.50;57.10
28087;DHT22;15392;48.912;8.380;2023-11-22T03:09:45;11.50;57.30
28087;DHT22;15392;48.912;8.380;2023-11-22T03:12:32;11.40;57.40
28087;DHT22;15392;48.912;8.380;2023-11-22T03:15:18;11.30;57.60
28087;DHT22;15392;48.912;8.380;2023-11-22T03:18:04;11.30;57.80
28087;DHT22;15392;48.912;8.380;2023-11-22T03:20:51;11.30;58.10
28087;DHT22;15392;48.912;8.380;2023-11-22T03:23:39;11.20;58.20
28087;DHT22;15392;48.912;8.380;2023-11-22T03:26:26;11.20;58.50
28087;DHT22;15392;48.912;8.380;2023-11-22T03:29:13;11.20;58.60
28087;DHT22;15392;48.912;8.380;2023-11-22T03:32:02;11.20;58.60
28087;DHT22;15392;48.912;8.380;2023-11-22T03:34:48;11.20;58.70
28087;DHT22;15392;48.912;8.380;2023-11-22T03:37:34;11.20;58.80
28087;DHT22;15392;48.912;8.380;2023-11-22T03:40:20;11.20;58.90
28087;DHT22;15392;48.912;8.380;2023-11-22T03:43:06;11.20;58.90
28087;DHT22;15392;48.912;8.380;2023-11-22T03:45:55;11.20;58.90
28087;DHT22;15392;48.912;8.380;2023-11-22T03:48:41;11.20;58.90
28087;DHT22;15392;48.912;8.380;2023-11-22T03:51:28;11.20;58.90
28087;DHT22;15392;48.912;8.380;2023-11-22T03:54:14;11.20;58.90
28087;DHT22;15392;48.912;8.380;2023-11-22T03:57:00;11.20;58.80
28087;DHT22;15392;48.912;8.380;2023-11-22T03:59:47;11.30;58.80
28087;DHT22;15392;48.912;8.380;2023-11-22T04:02:34;11.30;58.70
28087;DHT22;15392;48.912;8.380;2023-11-22T04:05:20;11.30;58.70
28087;DHT22;15392;48.912;8.380;2023-11-22T04:08:06;11.20;58.60
28087;DHT22;15392;48.912;8.380;2023-11-22T04:10:54;11.20;58.60
28087;DHT22;15392;48.912;8.380;2023-11-22T04:13:40;11.30;58.60
28087;DHT22;15392;48.912;8.380;2023-11-22T04:16:26;11.20;58.60
28087;DHT22;15392;48.912;8.380;2023-11-22T04:19:12;11.20;58.50
28087;DHT22;15392;48.912;8.380;2023-11-22T04:21:58;11.20;58.50
28087;DHT22;15392;48.912;8.380;2023-11-22T04:24:44;11.20;58.60
28087;DHT22;15392;48.912;8.380;2023-11-22T04:27:32;11.20;58.60
28087;DHT22;15392;48.912;8.380;2023-11-22T04:30:18;11.20;58.60
28087;DHT22;15392;48.912;8.380;2023-11-22T04:33:04;11.20;58.50
28087;DHT22;15392;48.912;8.380;2023-11-22T04:35:51;11.20;58.50
28087;DHT22;15392;48.912;8.380;2023-11-22T04:38:37;11.20;58.50
28087;DHT22;15392;48.912;8.380;2023-11-22T04:41:23;11.20;58.60
28087;DHT22;15392;48.912;8.380;2023-11-22T04:44:10;11.20;58.70
28087;DHT22;15392;48.912;8.380;2023-11-22T04:46:56;11.10;58.70
28087;DHT22;15392;48.912;8.380;2023-11-22T04:49:45;11.10;58.70
28087;DHT22;15392;48.912;8.380;2023-11-22T04:52:31;11.10;58.50
28087;DHT22;15392;48.912;8.380;2023-11-22T04:55:18;11.10;58.30
28087;DHT22;15392;48.912;8.380;2023-11-22T04:58:08;11.10;58.20
28087;DHT22;15392;48.912;8.380;2023-11-22T05:00:54;11.10;58.00
28087;DHT22;15392;48.912;8.380;2023-11-22T05:03:42;11.00;57.80
28087;DHT22;15392;48.912;8.380;2023-11-22T05:06:29;11.00;57.70
28087;DHT22;15392;48.912;8.380;2023-11-22T05:09:15;11.00;57.70
28087;DHT22;15392;48.912;8.380;2023-11-22T05:12:03;10.90;57.50
28087;DHT22;15392;48.912;8.380;2023-11-22T05:14:49;10.90;57.40
28087;DHT22;15392;48.912;8.380;2023-11-22T05:17:36;10.90;57.40
28087;DHT22;15392;48.912;8.380;2023-11-22T05:20:22;10.80;57.40
28087;DHT22;15392;48.912;8.380;2023-11-22T05:23:08;10.80;57.40
28087;DHT22;15392;48.912;8.380;2023-11-22T05:25:54;10.80;57.40
28087;DHT22;15392;48.912;8.380;2023-11-22T05:28:40;10.70;57.30
28087;DHT22;15392;48.912;8.380;2023-11-22T05:31:26;10.70;57.30
28087;DHT22;15392;48.912;8.380;2023-11-22T05:34:11;10.70;57.40
28087;DHT22;15392;48.912;8.380;2023-11-22T05:36:58;10.70;57.50
28087;DHT22;15392;48.912;8.380;2023-11-22T05:39:44;10.60;57.50
28087;DHT22;15392;48.912;8.380;2023-11-22T05:42:30;10.60;57.40
28087;DHT22;15392;48.912;8.380;2023-11-22T05:45:17;10.60;57.40
28087;DHT22;15392;48.912;8.380;2023-11-22T05:48:03;10.60;57.10
28087;DHT22;15392;48.912;8.380;2023-11-22T05:50:49;10.50;57.20
28087;DHT22;15392;48.912;8.380;2023-11-22T05:53:35;10.50;57.10
28087;DHT22;15392;48.912;8.380;2023-11-22T05:56:22;10.40;57.10
28087;DHT22;15392;48.912;8.380;2023-11-22T05:59:08;10.40;57.20
28087;DHT22;15392;48.912;8.380;2023-11-22T06:01:54;10.30;57.10
28087;DHT22;15392;48.912;8.380;2023-11-22T06:04:40;10.30;57.20
28087;DHT22;15392;48.912;8.380;2023-11-22T06:07:26;10.30;57.30
28087;DHT22;15392;48.912;8.380;2023-11-22T06:10:13;10.30;57.40
28087;DHT22;15392;48.912;8.380;2023-11-22T06:13:00;10.20;57.40
28087;DHT22;15392;48.912;8.380;2023-11-22T06:15:46;10.20;58.10
28087;DHT22;15392;48.912;8.380;2023-11-22T06:18:32;10.20;57.50
28087;DHT22;15392;48.912;8.380;2023-11-22T06:21:19;10.10;57.20
28087;DHT22;15392;48.912;8.380;2023-11-22T06:24:05;10.10;57.20
28087;DHT22;15392;48.912;8.380;2023-11-22T06:26:54;10.10;57.20
28087;DHT22;15392;48.912;8.380;2023-11-22T06:29:40;10.10;57.30
28087;DHT22;15392;48.912;8.380;2023-11-22T06:32:29;10.10;57.30
28087;DHT22;15392;48.912;8.380;2023-11-22T06:35:15;10.00;57.30
28087;DHT22;15392;48.912;8.380;2023-11-22T06:38:01;10.00;57.20
28087;DHT22;15392;48.912;8.380;2023-11-22T06:40:47;10.00;57.20
28087;DHT22;15392;48.912;8.380;2023-11-22T06:43:32;9.90;57.20
28087;DHT22;15392;48.912;8.380;2023-11-22T06:46:18;9.90;57.10
28087;DHT22;15392;48.912;8.380;2023-11-22T06:49:04;9.90;57.20
28087;DHT22;15392;48.912;8.380;2023-11-22T06:51:51;9.90;57.30
28087;DHT22;15392;48.912;8.380;2023-11-22T06:54:37;9.80;57.00
28087;DHT22;15392;48.912;8.380;2023-11-22T06:57:23;9.80;57.00
28087;DHT22;15392;48.912;8.380;2023-11-22T07:00:14;9.80;57.10
28087;DHT22;15392;48.912;8.380;2023-11-22T07:03:02;9.70;57.10
28087;DHT22;15392;48.912;8.380;2023-11-22T07:05:48;9.70;57.10
28087;DHT22;15392;48.912;8.380;2023-11-22T07:08:34;9.60;57.00
28087;DHT22;15392;48.912;8.380;2023-11-22T07:11:24;9.60;57.20
28087;DHT22;15392;48.912;8.380;2023-11-22T07:14:10;9.60;56.90
28087;DHT22;15392;48.912;8.380;2023-11-22T07:16:56;9.60;56.80
28087;DHT22;15392;48.912;8.380;2023-11-22T07:19:43;9.50;56.70
28087;DHT22;15392;48.912;8.380;2023-11-22T07:22:32;9.50;56.80
28087;DHT22;15392;48.912;8.380;2023-11-22T07:25:19;9.40;56.70
28087;DHT22;15392;48.912;8.380;2023-11-22T07:28:05;9.40;56.50
28087;DHT22;15392;48.912;8.380;2023-11-22T07:30:51;9.30;56.50
28087;DHT22;15392;48.912;8.380;2023-11-22T07:33:37;9.30;56.60
28087;DHT22;15392;48.912;8.380;2023-11-22T07:36:24;9.20;56.70
28087;DHT22;15392;48.912;8.380;2023-11-22T07:39:10;9.20;57.50
28087;DHT22;15392;48.912;8.380;2023-11-22T07:41:57;9.10;56.90
28087;DHT22;15392;48.912;8.380;2023-11-22T07:44:43;9.10;56.90
28087;DHT22;15392;48.912;8.380;2023-11-22T07:47:29;9.10;57.10
28087;DHT22;15392;48.912;8.380;2023-11-22T07:50:15;9.00;57.20
28087;DHT22;15392;48.912;8.380;2023-11-22T07:53:01;9.00;57.40
28087;DHT22;15392;48.912;8.380;2023-11-22T07:55:49;9.00;57.50
28087;DHT22;15392;48.912;8.380;2023-11-22T07:58:35;9.00;57.60
28087;DHT22;15392;48.912;8.380;2023-11-22T08:01:21;9.00;57.60
28087;DHT22;15392;48.912;8.380;2023-11-22T08:04:07;9.00;57.50
28087;DHT22;15392;48.912;8.380;2023-11-22T08:06:55;9.00;57.40
28087;DHT22;15392;48.912;8.380;2023-11-22T08:09:42;9.00;57.40
28087;DHT22;15392;48.912;8.380;2023-11-22T08:12:29;9.00;57.40
28087;DHT22;15392;48.912;8.380;2023-11-22T08:15:15;9.00;57.50
28087;DHT22;15392;48.912;8.380;2023-11-22T08:18:01;9.00;57.50
28087;DHT22;15392;48.912;8.380;2023-11-22T08:20:47;9.00;57.50
28087;DHT22;15392;48.912;8.380;2023-11-22T08:23:33;9.00;57.40
28087;DHT22;15392;48.912;8.380;2023-11-22T08:26:19;9.00;57.40
28087;DHT22;15392;48.912;8.380;2023-11-22T08:29:05;9.00;57.50
28087;DHT22;15392;48.912;8.380;2023-11-22T08:31:53;9.10;57.70
28087;DHT22;15392;48.912;8.380;2023-11-22T08:34:39;9.20;57.80
28087;DHT22;15392;48.912;8.380;2023-11-22T08:37:25;9.20;57.60
28087;DHT22;15392;48.912;8.380;2023-11-22T08:40:11;9.30;57.50
28087;DHT22;15392;48.912;8.380;2023-11-22T08:42:59;9.30;57.20
28087;DHT22;15392;48.912;8.380;2023-11-22T08:45:45;9.30;57.00
28087;DHT22;15392;48.912;8.380;2023-11-22T08:48:31;9.30;56.70
28087;DHT22;15392;48.912;8.380;2023-11-22T08:51:18;9.30;56.60
28087;DHT22;15392;48.912;8.380;2023-11-22T08:54:04;9.30;56.70
28087;DHT22;15392;48.912;8.380;2023-11-22T08:56:50;9.30;56.90
28087;DHT22;15392;48.912;8.380;2023-11-22T08:59:37;9.30;57.00
28087;DHT22;15392;48.912;8.380;2023-11-22T09:02:23;9.40;57.10
28087;DHT22;15392;48.912;8.380;2023-11-22T09:05:09;9.40;57.10
28087;DHT22;15392;48.912;8.380;2023-11-22T09:07:58;9.40;57.20
28087;DHT22;15392;48.912;8.380;2023-11-22T09:10:47;9.40;57.20
28087;DHT22;15392;48.912;8.380;2023-11-22T09:13:33;9.40;57.10
28087;DHT22;15392;48.912;8.380;2023-11-22T09:16:20;9.50;57.00
28087;DHT22;15392;48.912;8.380;2023-11-22T09:19:09;9.50;56.90
28087;DHT22;15392;48.912;8.380;2023-11-22T09:21:55;9.50;56.80
28087;DHT22;15392;48.912;8.380;2023-11-22T09:24:41;9.50;56.80
28087;DHT22;15392;48.912;8.380;2023-11-22T09:27:27;9.50;56.80
28087;DHT22;15392;48.912;8.380;2023-11-22T09:30:14;9.60;56.80
28087;DHT22;15392;48.912;8.380;2023-11-22T09:33:17;9.60;56.60
28087;DHT22;15392;48.912;8.380;2023-11-22T09:36:04;9.60;56.60
28087;DHT22;15392;48.912;8.380;2023-11-22T09:38:51;9.60;56.40
28087;DHT22;15392;48.912;8.380;2023-11-22T09:41:38;9.60;56.40
28087;DHT22;15392;48.912;8.380;2023-11-22T09:44:25;9.60;56.40
28087;DHT22;15392;48.912;8.380;2023-11-22T09:47:11;9.60;56.40
28087;DHT22;15392;48.912;8.380;2023-11-22T09:49:57;9.60;56.30
28087;DHT22;15392;48.912;8.380;2023-11-22T09:52:51;9.60;56.30
28087;DHT22;15392;48.912;8.380;2023-11-22T09:55:41;9.60;56.40
28087;DHT22;15392;48.912;8.380;2023-11-22T09:58:31;9.60;56.40
28087;DHT22;15392;48.912;8.380;2023-11-22T10:01:18;9.60;56.30
28087;DHT22;15392;48.912;8.380;2023-11-22T10:04:04;9.60;56.40
28087;DHT22;15392;48.912;8.380;2023-11-22T10:06:53;9.60;56.40
28087;DHT22;15392;48.912;8.380;2023-11-22T10:09:39;9.60;56.50
28087;DHT22;15392;48.912;8.380;2023-11-22T10:12:30;9.70;56.50
28087;DHT22;15392;48.912;8.380;2023-11-22T10:15:17;9.70;56.40
28087;DHT22;15392;48.912;8.380;2023-11-22T10:18:04;9.70;56.30
28087;DHT22;15392;48.912;8.380;2023-11-22T10:20:52;9.70;56.10
28087;DHT22;15392;48.912;8.380;2023-11-22T10:23:40;9.70;56.00
28087;DHT22;15392;48.912;8.380;2023-11-22T10:26:26;9.80;56.10
28087;DHT22;15392;48.912;8.380;2023-11-22T10:29:13;9.80;56.20
28087;DHT22;15392;48.912;8.380;2023-11-22T10:31:59;9.80;56.30
28087;DHT22;15392;48.912;8.380;2023-11-22T10:34:46;9.80;56.20
28087;DHT22;15392;48.912;8.380;2023-11-22T10:37:33;9.80;56.10
28087;DHT22;15392;48.912;8.380;2023-11-22T10:40:20;9.80;56.00
28087;DHT22;15392;48.912;8.380;2023-11-22T10:43:07;9.80;56.00
28087;DHT22;15392;48.912;8.380;2023-11-22T10:45:55;9.90;55.90
28087;DHT22;15392;48.912;8.380;2023-11-22T10:48:41;9.90;56.00
28087;DHT22;15392;48.912;8.380;2023-11-22T10:51:33;9.90;56.00
28087;DHT22;15392;48.912;8.380;2023-11-22T10:54:21;10.00;55.90
28087;DHT22;15392;48.912;8.380;2023-11-22T10:57:08;10.10;56.00
28087;DHT22;15392;48.912;8.380;2023-11-22T10:59:55;10.20;55.90
28087;DHT22;15392;48.912;8.380;2023-11-22T11:02:45;10.30;55.70
28087;DHT22;15392;48.912;8.380;2023-11-22T11:05:38;10.30;55.50
28087;DHT22;15392;48.912;8.380;2023-11-22T11:08:28;10.40;55.50
28087;DHT22;15392;48.912;8.380;2023-11-22T11:11:15;10.40;55.40
28087;DHT22;15392;48.912;8.380;2023-11-22T11:14:02;10.50;55.40
28087;DHT22;15392;48.912;8.380;2023-11-22T11:16:50;10.50;55.20
28087;DHT22;15392;48.912;8.380;2023-11-22T11:19:40;10.50;55.20
28087;DHT22;15392;48.912;8.380;2023-11-22T11:22:27;10.50;55.80
28087;DHT22;15392;48.912;8.380;2023-11-22T11:25:15;10.50;55.00
28087;DHT22;15392;48.912;8.380;2023-11-22T11:28:04;10.50;55.00
28087;DHT22;15392;48.912;8.380;2023-11-22T11:30:50;10.50;55.00
28087;DHT22;15392;48.912;8.380;2023-11-22T11:33:53;10.50;55.00
28087;DHT22;15392;48.912;8.380;2023-11-22T11:36:41;10.40;54.60
28087;DHT22;15392;48.912;8.380;2023-11-22T11:39:27;10.40;55.00
28087;DHT22;15392;48.912;8.380;2023-11-22T11:42:17;10.40;55.00
28087;DHT22;15392;48.912;8.380;2023-11-22T11:45:05;10.40;55.10
28087;DHT22;15392;48.912;8.380;2023-11-22T11:47:52;10.40;55.20
28087;DHT22;15392;48.912;8.380;2023-11-22T11:50:38;10.40;55.20
28087;DHT22;15392;48.912;8.380;2023-11-22T11:53:24;10.40;55.10
28087;DHT22;15392;48.912;8.380;2023-11-22T11:56:10;10.40;54.90
28087;DHT22;15392;48.912;8.380;2023-11-22T11:58:57;10.40;54.90
28087;DHT22;15392;48.912;8.380;2023-11-22T12:01:46;10.40;54.70
28087;DHT22;15392;48.912;8.380;2023-11-22T12:04:32;10.40;54.80
28087;DHT22;15392;48.912;8.380;2023-11-22T12:07:20;10.40;54.70
28087;DHT22;15392;48.912;8.380;2023-11-22T12:10:06;10.40;54.80
28087;DHT22;15392;48.912;8.380;2023-11-22T12:12:52;10.30;54.80
28087;DHT22;15392;48.912;8.380;2023-11-22T12:15:38;10.30;54.80
28087;DHT22;15392;48.912;8.380;2023-11-22T12:18:25;10.30;54.60
28087;DHT22;15392;48.912;8.380;2023-11-22T12:21:12;10.30;54.90
28087;DHT22;15392;48.912;8.380;2023-11-22T12:24:01;10.30;54.90
28087;DHT22;15392;48.912;8.380;2023-11-22T12:26:49;10.30;55.00
28087;DHT22;15392;48.912;8.380;2023-11-22T12:29:36;10.30;54.80
28087;DHT22;15392;48.912;8.380;2023-11-22T12:32:24;10.30;54.90
28087;DHT22;15392;48.912;8.380;2023-11-22T12:35:10;10.30;55.50
28087;DHT22;15392;48.912;8.380;2023-11-22T12:37:59;10.30;55.00
28087;DHT22;15392;48.912;8.380;2023-11-22T12:40:47;10.30;55.00
28087;DHT22;15392;48.912;8.380;2023-11-22T12:43:34;10.30;55.00
28087;DHT22;15392;48.912;8.380;2023-11-22T12:46:20;10.30;55.00
28087;DHT22;15392;48.912;8.380;2023-11-22T12:49:06;10.30;54.90
28087;DHT22;15392;48.912;8.380;2023-11-22T12:51:54;10.30;55.10
28087;DHT22;15392;48.912;8.380;2023-11-22T12:54:41;10.30;55.10
28087;DHT22;15392;48.912;8.380;2023-11-22T12:57:27;10.30;55.10
28087;DHT22;15392;48.912;8.380;2023-11-22T13:00:13;10.30;55.00
28087;DHT22;15392;48.912;8.380;2023-11-22T13:02:59;10.30;54.90
28087;DHT22;15392;48.912;8.380;2023-11-22T13:05:45;10.30;55.00
28087;DHT22;15392;48.912;8.380;2023-11-22T13:08:31;10.40;55.00
28087;DHT22;15392;48.912;8.380;2023-11-22T13:11:19;10.40;54.70
28087;DHT22;15392;48.912;8.380;2023-11-22T13:14:05;10.40;54.80
28087;DHT22;15392;48.912;8.380;2023-11-22T13:16:51;10.40;54.90
28087;DHT22;15392;48.912;8.380;2023-11-22T13:19:37;10.40;54.70
28087;DHT22;15392;48.912;8.380;2023-11-22T13:22:24;10.40;54.80
28087;DHT22;15392;48.912;8.380;2023-11-22T13:25:11;10.40;54.70
28087;DHT22;15392;48.912;8.380;2023-11-22T13:27:59;10.40;54.80
28087;DHT22;15392;48.912;8.380;2023-11-22T13:30:45;10.50;54.70
28087;DHT22;15392;48.912;8.380;2023-11-22T13:33:31;10.50;54.70
28087;DHT22;15392;48.912;8.380;2023-11-22T13:36:17;10.50;54.80
28087;DHT22;15392;48.912;8.380;2023-11-22T13:39:03;10.50;54.90
28087;DHT22;15392;48.912;8.380;2023-11-22T13:41:50;10.50;54.90
28087;DHT22;15392;48.912;8.380;2023-11-22T13:44:36;10.50;54.90
28087;DHT22;15392;48.912;8.380;2023-11-22T13:47:22;10.50;54.70
28087;DHT22;15392;48.912;8.380;2023-11-22T13:50:08;10.50;54.60
28087;DHT22;15392;48.912;8.380;2023-11-22T13:52:55;10.50;54.70
28087;DHT22;15392;48.912;8.380;2023-11-22T13:55:42;10.50;54.80
28087;DHT22;15392;48.912;8.380;2023-11-22T13:58:29;10.50;54.70
28087;DHT22;15392;48.912;8.380;2023-11-22T14:01:15;10.50;54.80
28087;DHT22;15392;48.912;8.380;2023-11-22T14:04:06;10.50;54.70
28087;DHT22;15392;48.912;8.380;2023-11-22T14:06:52;10.50;54.60
28087;DHT22;15392;48.912;8.380;2023-11-22T14:09:38;10.60;54.60
28087;DHT22;15392;48.912;8.380;2023-11-22T14:12:24;10.50;54.60
28087;DHT22;15392;48.912;8.380;2023-11-22T14:15:12;10.50;54.50
28087;DHT22;15392;48.912;8.380;2023-11-22T14:17:58;10.50;54.50
28087;DHT22;15392;48.912;8.380;2023-11-22T14:20:44;10.50;54.50
28087;DHT22;15392;48.912;8.380;2023-11-22T14:23:30;10.50;54.60
28087;DHT22;15392;48.912;8.380;2023-11-22T14:26:16;10.50;54.60
28087;DHT22;15392;48.912;8.380;2023-11-22T14:29:02;10.50;54.50
28087;DHT22;15392;48.912;8.380;2023-11-22T14:31:48;10.50;54.60
28087;DHT22;15392;48.912;8.380;2023-11-22T14:34:34;10.50;54.60
28087;DHT22;15392;48.912;8.380;2023-11-22T14:37:20;10.50;54.60
28087;DHT22;15392;48.912;8.380;2023-11-22T14:40:07;10.50;54.60
28087;DHT22;15392;48.912;8.380;2023-11-22T14:42:59;10.50;54.50
28087;DHT22;15392;48.912;8.380;2023-11-22T14:45:46;10.50;54.50
28087;DHT22;15392;48.912;8.380;2023-11-22T14:48:32;10.50;54.50
28087;DHT22;15392;48.912;8.380;2023-11-22T14:51:19;10.40;54.30
28087;DHT22;15392;48.912;8.380;2023-11-22T14:54:05;10.40;54.50
28087;DHT22;15392;48.912;8.380;2023-11-22T14:56:51;10.40;54.50
28087;DHT22;15392;48.912;8.380;2023-11-22T14:59:38;10.40;54.50
28087;DHT22;15392;48.912;8.380;2023-11-22T15:02:25;10.40;54.50
28087;DHT22;15392;48.912;8.380;2023-11-22T15:05:12;10.40;54.40
28087;DHT22;15392;48.912;8.380;2023-11-22T15:07:58;10.40;54.40
28087;DHT22;15392;48.912;8.380;2023-11-22T15:10:45;10.40;54.50
28087;DHT22;15392;48.912;8.380;2023-11-22T15:13:31;10.40;54.50
28087;DHT22;15392;48.912;8.380;2023-11-22T15:16:17;10.40;54.50
28087;DHT22;15392;48.912;8.380;2023-11-22T15:19:04;10.30;54.50
28087;DHT22;15392;48.912;8.380;2023-11-22T15:21:52;10.40;54.60
28087;DHT22;15392;48.912;8.380;2023-11-22T15:24:39;10.40;54.60
28087;DHT22;15392;48.912;8.380;2023-11-22T15:27:25;10.30;54.60
28087;DHT22;15392;48.912;8.380;2023-11-22T15:30:11;10.40;54.50
28087;DHT22;15392;48.912;8.380;2023-11-22T15:32:58;10.30;54.40
28087;DHT22;15392;48.912;8.380;2023-11-22T15:35:44;10.30;54.20
28087;DHT22;15392;48.912;8.380;2023-11-22T15:38:30;10.30;54.10
28087;DHT22;15392;48.912;8.380;2023-11-22T15:41:16;10.30;54.20
28087;DHT22;15392;48.912;8.380;2023-11-22T15:44:02;10.30;54.20
28087;DHT22;15392;48.912;8.380;2023-11-22T15:46:48;10.20;54.20
28087;DHT22;15392;48.912;8.380;2023-11-22T15:49:34;10.20;54.30
28087;DHT22;15392;48.912;8.380;2023-11-22T15:52:20;10.20;54.40
28087;DHT22;15392;48.912;8.380;2023-11-22T15:55:07;10.10;54.20
28087;DHT22;15392;48.912;8.380;2023-11-22T15:57:54;10.10;53.80
28087;DHT22;15392;48.912;8.380;2023-11-22T16:00:40;10.00;53.50
28087;DHT22;15392;48.912;8.380;2023-11-22T16:03:26;10.00;53.70
28087;DHT22;15392;48.912;8.380;2023-11-22T16:06:14;10.00;54.10
28087;DHT22;15392;48.912;8.380;2023-11-22T16:09:00;10.00;54.40
28087;DHT22;15392;48.912;8.380;2023-11-22T16:11:46;9.90;54.60
28087;DHT22;15392;48.912;8.380;2023-11-22T16:14:32;9.90;54.60
28087;DHT22;15392;48.912;8.380;2023-11-22T16:17:19;9.90;54.60
28087;DHT22;15392;48.912;8.380;2023-11-22T16:20:05;9.90;54.50
28087;DHT22;15392;48.912;8.380;2023-11-22T16:22:56;9.90;54.50
28087;DHT22;15392;48.912;8.380;2023-11-22T16:25:42;9.80;54.30
28087;DHT22;15392;48.912;8.380;2023-11-22T16:28:28;9.80;54.30
28087;DHT22;15392;48.912;8.380;2023-11-22T16:31:16;9.80;54.40
28087;DHT22;15392;48.912;8.380;2023-11-22T16:34:02;9.70;54.40
28087;DHT22;15392;48.912;8.380;2023-11-22T16:36:50;9.60;54.30
28087;DHT22;15392;48.912;8.380;2023-11-22T16:39:36;9.60;54.30
28087;DHT22;15392;48.912;8.380;2023-11-22T16:42:22;9.50;54.20
28087;DHT22;15392;48.912;8.380;2023-11-22T16:45:08;9.40;54.20
28087;DHT22;15392;48.912;8.380;2023-11-22T16:47:55;9.30;54.20
28087;DHT22;15392;48.912;8.380;2023-11-22T16:50:43;9.30;54.40
28087;DHT22;15392;48.912;8.380;2023-11-22T16:53:29;9.20;54.60
28087;DHT22;15392;48.912;8.380;2023-11-22T16:56:15;9.10;54.60
28087;DHT22;15392;48.912;8.380;2023-11-22T16:59:04;9.00;54.60
28087;DHT22;15392;48.912;8.380;2023-11-22T17:01:52;8.90;54.70
28087;DHT22;15392;48.912;8.380;2023-11-22T17:04:42;8.80;54.60
28087;DHT22;15392;48.912;8.380;2023-11-22T17:07:28;8.80;54.60
28087;DHT22;15392;48.912;8.380;2023-11-22T17:10:14;8.70;54.80
28087;DHT22;15392;48.912;8.380;2023-11-22T17:13:01;8.60;54.90
28087;DHT22;15392;48.912;8.380;2023-11-22T17:15:47;8.60;55.10
28087;DHT22;15392;48.912;8.380;2023-11-22T17:18:33;8.50;55.20
28087;DHT22;15392;48.912;8.380;2023-11-22T17:21:19;8.50;55.20
28087;DHT22;15392;48.912;8.380;2023-11-22T17:24:05;8.40;55.40
28087;DHT22;15392;48.912;8.380;2023-11-22T17:26:53;8.40;55.40
28087;DHT22;15392;48.912;8.380;2023-11-22T17:29:39;8.40;55.60
28087;DHT22;15392;48.912;8.380;2023-11-22T17:32:25;8.40;55.80
28087;DHT22;15392;48.912;8.380;2023-11-22T17:35:11;8.30;55.90
28087;DHT22;15392;48.912;8.380;2023-11-22T17:37:58;8.30;56.10